Portada
METAR-TAF:

METAR-TAF

Aeroports :

Marion, Carolina del Sud, Estats Units d'Amèrica

latitud: 34-10-52N, longitud: 079-20-05W, altitud: 28 m

Observació

L'informe es va fer fa 28 minuts, a les 04:35 UTC
Vent 6 kt del Oest/Sud-Oest
Temperatura 23°C
Humitat 83%
Pressió 1016 hPa
Visibilitat: 16.1 km
Cel clar

METAR: KMAO 300435Z AUTO 24006KT 10SM CLR 23/20 A3001 RMK AO2

Hora: 01:03 (05:03 UTC)


TAF: manca

Observacions i pronòstics meteorològics de més de 4000 aeroports (METAR i TAF).

Les estacions disponibles són els punts grocs i vermells al mapa.

Posi el ratolí al punt desitjat per veure el nom de l'estació.

Feu clic per veure les observacions i els pronòstics meteorològics.

Per canviar el mapa: feu clic els botons verds amb una creu de color negre per apropar; al botó verd amb un guió per allunyar la imatge; o en les fletxes verdes per a mapes adjacents.


METAR-TAF: